createdAt,value
2018-08-03T00:00:39.625Z,5.87
2018-08-03T00:03:09.796Z,6.03
2018-08-03T00:05:38.475Z,6.28
2018-08-03T00:08:08.064Z,5.97
2018-08-03T00:10:37.287Z,5.90
2018-08-03T00:13:06.709Z,6.03
2018-08-03T00:15:35.540Z,6.17
2018-08-03T00:18:05.671Z,7.12
2018-08-03T00:20:34.207Z,6.40
2018-08-03T00:23:03.488Z,6.53
2018-08-03T00:25:34.604Z,6.33
2018-08-03T00:28:04.011Z,6.25
2018-08-03T00:30:33.155Z,6.30
2018-08-03T00:33:03.864Z,5.83
2018-08-03T00:35:32.340Z,5.85
2018-08-03T00:38:01.479Z,5.97
2018-08-03T00:40:30.719Z,5.97
2018-08-03T00:43:01.047Z,6.25
2018-08-03T00:45:29.952Z,6.58
2018-08-03T00:47:58.728Z,6.45
2018-08-03T00:50:28.112Z,6.10
2018-08-03T00:52:58.002Z,5.87
2018-08-03T00:55:27.035Z,5.85
2018-08-03T00:57:56.373Z,5.87
2018-08-03T01:00:24.894Z,5.70
2018-08-03T01:02:53.825Z,6.12
2018-08-03T01:05:23.778Z,5.92
2018-08-03T01:07:53.042Z,6.33
2018-08-03T01:10:21.634Z,6.65
2018-08-03T01:12:51.288Z,6.30
2018-08-03T01:15:20.056Z,6.50
2018-08-03T01:17:49.521Z,6.03
2018-08-03T01:20:18.090Z,6.47
2018-08-03T01:22:46.867Z,6.85
2018-08-03T01:25:16.588Z,6.50
2018-08-03T01:27:45.105Z,6.50
2018-08-03T01:30:13.701Z,6.78
2018-08-03T01:32:42.827Z,7.15
2018-08-03T01:35:11.436Z,7.17
2018-08-03T01:37:40.024Z,7.28
2018-08-03T01:40:09.478Z,7.28
2018-08-03T01:42:38.006Z,7.72
2018-08-03T01:45:07.979Z,7.55
2018-08-03T01:47:36.667Z,7.10
2018-08-03T01:50:05.385Z,7.42
2018-08-03T01:52:34.200Z,7.58
2018-08-03T01:55:03.435Z,7.90
2018-08-03T01:57:31.941Z,7.70
2018-08-03T02:00:01.290Z,7.67
2018-08-03T02:02:31.081Z,7.70
2018-08-03T02:04:59.567Z,8.13
2018-08-03T02:07:29.146Z,7.70
2018-08-03T02:09:58.320Z,7.65
2018-08-03T02:12:27.458Z,7.85
2018-08-03T02:14:56.131Z,7.60
2018-08-03T02:17:24.737Z,7.58
2018-08-03T02:19:54.587Z,7.33
2018-08-03T02:22:23.768Z,7.12
2018-08-03T02:24:52.596Z,8.07
2018-08-03T02:27:22.236Z,7.00
2018-08-03T02:29:51.056Z,7.28
2018-08-03T02:32:22.102Z,7.55
2018-08-03T02:34:50.706Z,7.33
2018-08-03T02:37:19.768Z,7.55
2018-08-03T02:39:50.706Z,7.77
2018-08-03T02:42:21.060Z,6.95
2018-08-03T02:44:51.265Z,7.78
2018-08-03T02:47:20.118Z,7.90
2018-08-03T02:49:49.603Z,7.55
2018-08-03T02:52:18.136Z,8.05
2018-08-03T02:54:46.691Z,7.73
2018-08-03T02:57:16.227Z,7.72
2018-08-03T02:59:44.731Z,7.60
2018-08-03T03:02:14.256Z,7.83
2018-08-03T03:04:43.215Z,7.28
2018-08-03T03:07:12.450Z,7.42
2018-08-03T03:09:42.687Z,7.70
2018-08-03T03:12:11.413Z,8.08
2018-08-03T03:14:40.837Z,8.50
2018-08-03T03:17:11.669Z,7.70
2018-08-03T03:19:41.282Z,8.13
2018-08-03T03:22:09.929Z,8.03
2018-08-03T03:24:38.442Z,8.25
2018-08-03T03:27:07.732Z,8.23
2018-08-03T03:29:36.519Z,7.70
2018-08-03T03:32:06.219Z,8.35
2018-08-03T03:34:34.766Z,8.13
2018-08-03T03:37:03.884Z,7.72
2018-08-03T03:39:33.717Z,7.55
2018-08-03T03:42:04.499Z,8.23
2018-08-03T03:44:34.467Z,7.62
2018-08-03T03:47:03.526Z,7.40
2018-08-03T03:49:33.092Z,7.37
2018-08-03T03:52:02.257Z,7.40
2018-08-03T03:54:30.903Z,8.28
2018-08-03T03:57:00.383Z,8.38
2018-08-03T03:59:29.853Z,8.05
2018-08-03T04:01:59.301Z,8.00
2018-08-03T04:04:27.815Z,7.92
2018-08-03T04:06:57.135Z,8.33
2018-08-03T04:09:27.113Z,8.58
2018-08-03T04:11:56.793Z,9.00
2018-08-03T04:14:25.368Z,8.58
2018-08-03T04:16:54.138Z,8.18
2018-08-03T04:19:23.513Z,8.38
2018-08-03T04:21:52.679Z,7.97
2018-08-03T04:24:21.980Z,8.53
2018-08-03T04:26:50.572Z,7.92
2018-08-03T04:29:20.157Z,7.95
2018-08-03T04:31:48.923Z,7.87
2018-08-03T04:34:17.406Z,8.58
2018-08-03T04:36:48.373Z,8.03
2018-08-03T04:39:17.766Z,8.03
2018-08-03T04:41:48.416Z,8.10
2018-08-03T04:44:17.130Z,7.75
2018-08-03T04:46:45.741Z,7.60
2018-08-03T04:49:15.222Z,7.53
2018-08-03T04:51:44.777Z,8.20
2018-08-03T04:54:13.543Z,8.25
2018-08-03T04:56:43.039Z,8.53
2018-08-03T04:59:11.920Z,8.50
2018-08-03T05:01:40.583Z,7.87
2018-08-03T05:04:09.815Z,8.65
2018-08-03T05:06:38.405Z,7.35
2018-08-03T05:09:07.853Z,8.03
2018-08-03T05:11:36.357Z,8.00
2018-08-03T05:14:04.913Z,7.67
2018-08-03T05:16:33.477Z,7.65
2018-08-03T05:19:02.048Z,7.80
2018-08-03T05:21:31.700Z,7.78
2018-08-03T05:24:01.462Z,7.33
2018-08-03T05:26:31.514Z,7.70
2018-08-03T05:29:02.752Z,7.83
2018-08-03T05:31:32.006Z,7.53
2018-08-03T05:34:02.320Z,7.53
2018-08-03T05:36:30.986Z,7.80
2018-08-03T05:39:00.227Z,8.18
2018-08-03T05:41:28.787Z,8.68
2018-08-03T05:43:57.316Z,8.13
2018-08-03T05:46:25.868Z,7.53
2018-08-03T05:48:55.555Z,8.77
2018-08-03T05:51:25.439Z,8.48
2018-08-03T05:53:55.006Z,8.10
2018-08-03T05:56:25.853Z,8.58
2018-08-03T05:58:56.509Z,9.03
2018-08-03T06:01:25.281Z,9.40
2018-08-03T06:03:53.732Z,9.07
2018-08-03T06:06:22.309Z,7.90
2018-08-03T06:08:51.769Z,8.60
2018-08-03T06:11:20.436Z,8.38
2018-08-03T06:13:49.058Z,8.33
2018-08-03T06:16:18.214Z,8.05
2018-08-03T06:18:46.854Z,7.27
2018-08-03T06:21:15.471Z,7.97
2018-08-03T06:23:47.642Z,7.72
2018-08-03T06:26:18.577Z,7.20
2018-08-03T06:28:47.877Z,7.40
2018-08-03T06:31:16.808Z,6.92
2018-08-03T06:33:45.251Z,6.45
2018-08-03T06:36:14.044Z,6.55
2018-08-03T06:38:42.780Z,6.50
2018-08-03T06:41:11.636Z,6.35
2018-08-03T06:43:40.286Z,6.03
2018-08-03T06:46:09.127Z,5.50
2018-08-03T06:48:41.022Z,5.92
2018-08-03T06:51:10.726Z,5.15
2018-08-03T06:53:40.440Z,5.20
2018-08-03T06:56:09.806Z,4.92
2018-08-03T06:58:40.429Z,4.80
2018-08-03T07:01:11.410Z,5.25
2018-08-03T07:03:40.637Z,5.50
2018-08-03T07:06:13.376Z,5.10
2018-08-03T07:08:44.797Z,5.15
2018-08-03T07:12:43.277Z,5.08
2018-08-03T07:15:13.431Z,5.22
2018-08-03T07:17:44.179Z,4.80
2018-08-03T07:20:15.946Z,4.90
2018-08-03T07:22:47.218Z,4.55
2018-08-03T07:25:17.029Z,4.55
2018-08-03T07:27:47.016Z,4.40
2018-08-03T07:30:20.547Z,4.90
2018-08-03T07:32:50.228Z,4.37
2018-08-03T07:35:19.430Z,4.30
2018-08-03T07:37:48.649Z,4.20
2018-08-03T07:40:27.916Z,4.25
2018-08-03T07:43:02.305Z,4.00
2018-08-03T07:45:31.626Z,4.62
2018-08-03T07:48:03.939Z,4.55
2018-08-03T07:50:37.324Z,4.33
2018-08-03T07:53:08.158Z,4.62
2018-08-03T07:55:36.975Z,4.87
2018-08-03T07:58:06.911Z,4.08
2018-08-03T08:00:35.871Z,4.97
2018-08-03T08:03:04.857Z,4.83
2018-08-03T08:05:33.475Z,4.30
2018-08-03T08:08:03.131Z,4.30
2018-08-03T08:10:31.732Z,4.42
2018-08-03T08:13:01.177Z,4.10
2018-08-03T08:15:29.869Z,4.70
2018-08-03T08:17:58.737Z,4.60
2018-08-03T08:20:27.428Z,4.25
2018-08-03T08:22:57.298Z,4.37
2018-08-03T08:25:25.819Z,4.28
2018-08-03T08:27:54.605Z,4.70
2018-08-03T08:30:26.297Z,4.17
2018-08-03T08:32:54.863Z,4.05
2018-08-03T08:35:24.695Z,4.30
2018-08-03T08:37:53.382Z,4.05
2018-08-03T08:40:22.798Z,4.55
2018-08-03T08:42:51.461Z,3.83
2018-08-03T08:45:20.067Z,4.40
2018-08-03T08:47:51.114Z,3.92
2018-08-03T08:50:20.719Z,3.95
2018-08-03T08:52:50.566Z,3.80
2018-08-03T08:55:19.382Z,4.03
2018-08-03T08:57:47.888Z,4.10
2018-08-03T09:00:16.589Z,4.10
2018-08-03T09:02:45.747Z,4.62
2018-08-03T09:05:15.789Z,4.00
2018-08-03T09:07:45.115Z,3.83
2018-08-03T09:10:13.963Z,3.87
2018-08-03T09:12:43.029Z,3.52
2018-08-03T09:15:11.924Z,3.75
2018-08-03T09:17:42.144Z,3.90
2018-08-03T09:20:11.260Z,3.65
2018-08-03T09:22:40.046Z,3.57
2018-08-03T09:25:09.232Z,3.77
2018-08-03T09:27:39.189Z,3.60
2018-08-03T09:30:10.178Z,3.55
2018-08-03T09:32:39.328Z,3.72
2018-08-03T09:35:08.616Z,3.80
2018-08-03T09:40:37.635Z,4.00
2018-08-03T09:43:06.561Z,4.33
2018-08-03T09:45:35.866Z,4.20
2018-08-03T09:48:04.613Z,4.12
2018-08-03T09:50:33.430Z,4.15
2018-08-03T09:53:02.043Z,3.62
2018-08-03T09:55:31.449Z,4.17
2018-08-03T09:57:59.918Z,3.77
2018-08-03T10:00:34.839Z,4.15
2018-08-03T10:03:03.378Z,4.10
2018-08-03T10:05:34.408Z,4.33
2018-08-03T10:08:03.220Z,3.80
2018-08-03T10:10:34.304Z,4.12
2018-08-03T10:13:03.056Z,4.05
2018-08-03T10:15:32.057Z,3.87
2018-08-03T10:18:00.808Z,3.90
2018-08-03T10:20:29.591Z,3.92
2018-08-03T10:22:58.206Z,4.08
2018-08-03T10:25:29.389Z,3.95
2018-08-03T10:30:50.145Z,4.10
2018-08-03T10:33:19.768Z,3.83
2018-08-03T10:35:49.100Z,4.00
2018-08-03T10:38:22.125Z,4.28
2018-08-03T10:40:53.144Z,4.92
2018-08-03T10:43:21.863Z,4.25
2018-08-03T10:45:52.132Z,4.50
2018-08-03T10:48:21.829Z,4.40
2018-08-03T10:50:50.401Z,4.70
2018-08-03T10:53:19.161Z,4.55
2018-08-03T10:55:49.972Z,4.20
2018-08-03T10:58:19.750Z,4.50
2018-08-03T11:00:50.966Z,4.40
2018-08-03T11:03:20.688Z,4.60
2018-08-03T11:05:49.406Z,4.92
2018-08-03T11:08:17.950Z,4.12
2018-08-03T11:10:46.848Z,4.00
2018-08-03T11:13:15.910Z,4.25
2018-08-03T11:15:45.116Z,4.40
2018-08-03T11:18:13.799Z,4.33
2018-08-03T11:20:42.500Z,4.50
2018-08-03T11:23:11.121Z,4.28
2018-08-03T11:25:39.753Z,4.05
2018-08-03T11:28:08.542Z,4.20
2018-08-03T11:30:38.274Z,4.42
2018-08-03T11:33:06.863Z,4.22
2018-08-03T11:35:35.891Z,4.42
2018-08-03T11:38:05.104Z,4.33
2018-08-03T11:40:33.810Z,4.12
2018-08-03T11:43:03.264Z,4.03
2018-08-03T11:45:32.842Z,4.00
2018-08-03T11:48:02.417Z,4.05
2018-08-03T11:50:31.311Z,4.08
2018-08-03T11:52:59.816Z,4.10
2018-08-03T11:55:28.626Z,4.30
2018-08-03T11:57:57.416Z,4.10
2018-08-03T12:00:25.936Z,3.77
2018-08-03T12:02:55.540Z,4.25
2018-08-03T12:05:24.448Z,3.90
2018-08-03T12:07:53.733Z,4.17
2018-08-03T12:10:23.501Z,4.20
2018-08-03T12:12:52.144Z,4.10
2018-08-03T12:15:21.425Z,4.22
2018-08-03T12:17:50.149Z,4.17
2018-08-03T12:20:19.991Z,3.67
2018-08-03T12:22:49.476Z,3.50
2018-08-03T12:25:18.779Z,3.58
2018-08-03T12:27:47.425Z,3.57
2018-08-03T12:30:16.164Z,3.77
2018-08-03T12:32:44.670Z,4.00
2018-08-03T12:35:13.263Z,3.70
2018-08-03T12:37:41.844Z,4.30
2018-08-03T12:40:10.752Z,4.28
2018-08-03T12:42:40.342Z,4.08
2018-08-03T12:45:10.548Z,4.00
2018-08-03T12:47:40.209Z,3.95
2018-08-03T12:50:09.762Z,4.00
2018-08-03T12:52:38.447Z,4.42
2018-08-03T12:55:08.075Z,3.87
2018-08-03T12:57:37.288Z,3.58
2018-08-03T13:00:11.170Z,4.00
2018-08-03T13:02:42.644Z,3.90
2018-08-03T13:05:11.265Z,4.00
2018-08-03T13:07:41.859Z,3.80
2018-08-03T13:10:14.060Z,3.87
2018-08-03T13:12:46.308Z,3.58
2018-08-03T13:15:16.378Z,3.60
2018-08-03T13:17:45.010Z,3.70
2018-08-03T13:20:13.517Z,3.90
2018-08-03T13:22:42.625Z,3.60
2018-08-03T13:25:13.480Z,3.22
2018-08-03T13:27:41.971Z,3.40
2018-08-03T13:30:14.756Z,3.52
2018-08-03T13:32:46.661Z,3.55
2018-08-03T13:35:15.864Z,3.30
2018-08-03T13:37:51.978Z,3.70
2018-08-03T13:40:24.258Z,3.75
2018-08-03T13:42:55.168Z,3.40
2018-08-03T13:45:25.118Z,3.65
2018-08-03T13:47:54.537Z,3.02
2018-08-03T13:50:25.871Z,3.20
2018-08-03T13:52:54.545Z,3.20
2018-08-03T13:55:24.193Z,3.20
2018-08-03T13:57:53.860Z,3.30
2018-08-03T14:00:26.928Z,3.27
2018-08-03T14:02:55.938Z,3.30
2018-08-03T14:05:25.712Z,3.20
2018-08-03T14:07:55.230Z,3.12
2018-08-03T14:10:23.734Z,3.30
2018-08-03T14:12:52.466Z,3.40
2018-08-03T14:15:21.646Z,3.60
2018-08-03T14:17:52.590Z,3.72
2018-08-03T14:20:21.747Z,3.80
2018-08-03T14:22:51.903Z,3.50
2018-08-03T14:25:23.604Z,3.20
2018-08-03T14:27:53.582Z,3.40
2018-08-03T14:30:22.900Z,3.25
2018-08-03T14:32:52.983Z,3.10
2018-08-03T14:35:24.437Z,3.30
2018-08-03T14:37:58.061Z,3.15
2018-08-03T14:40:33.705Z,3.05
2018-08-03T14:43:05.231Z,3.52
2018-08-03T14:45:35.226Z,3.05
2018-08-03T14:48:05.753Z,2.98
2018-08-03T14:50:37.214Z,3.22
2018-08-03T14:53:06.786Z,3.08
2018-08-03T14:55:39.351Z,3.17
2018-08-03T14:58:11.051Z,3.45
2018-08-03T15:00:44.838Z,3.22
2018-08-03T15:03:16.496Z,3.17
2018-08-03T15:05:46.172Z,3.30
2018-08-03T15:08:19.235Z,3.33
2018-08-03T15:10:57.046Z,3.30
2018-08-03T15:13:26.303Z,3.27
2018-08-03T15:15:58.697Z,3.10
2018-08-03T15:18:29.414Z,3.80
2018-08-03T15:21:00.191Z,3.37
2018-08-03T15:23:36.077Z,3.37
2018-08-03T15:26:06.267Z,3.20
2018-08-03T15:28:37.245Z,3.30
2018-08-03T15:31:11.428Z,3.27
2018-08-03T15:33:45.806Z,3.48
2018-08-03T15:36:14.740Z,3.42
2018-08-03T15:38:44.010Z,3.60
2018-08-03T15:41:12.473Z,3.12
2018-08-03T15:43:42.459Z,3.40
2018-08-03T15:46:11.108Z,3.05
2018-08-03T15:48:40.065Z,3.50
2018-08-03T15:51:08.925Z,3.20
2018-08-03T15:53:38.690Z,3.30
2018-08-03T15:56:07.319Z,3.10
2018-08-03T15:58:36.105Z,3.15
2018-08-03T16:01:05.046Z,3.42
2018-08-03T16:03:34.836Z,3.45
2018-08-03T16:06:04.224Z,3.20
2018-08-03T16:08:34.605Z,3.08
2018-08-03T16:11:04.371Z,3.37
2018-08-03T16:13:33.892Z,3.62
2018-08-03T16:16:03.296Z,4.08
2018-08-03T16:18:32.014Z,3.47
2018-08-03T16:21:01.630Z,3.40
2018-08-03T16:25:00.172Z,3.62
2018-08-03T16:27:28.676Z,3.55
2018-08-03T16:29:57.972Z,3.85
2018-08-03T16:32:27.072Z,4.00
2018-08-03T16:34:55.755Z,3.70
2018-08-03T16:37:25.205Z,3.92
2018-08-03T16:39:55.301Z,3.70
2018-08-03T16:42:28.141Z,3.85
2018-08-03T16:44:58.582Z,3.98
2018-08-03T16:47:27.392Z,4.10
2018-08-03T16:49:57.462Z,4.08
2018-08-03T16:52:26.137Z,4.10
2018-08-03T16:54:54.880Z,4.00
2018-08-03T16:57:25.943Z,3.95
2018-08-03T16:59:55.292Z,3.77
2018-08-03T17:02:24.903Z,3.65
2018-08-03T17:04:54.943Z,4.05
2018-08-03T17:07:23.537Z,4.03
2018-08-03T17:09:52.464Z,4.30
2018-08-03T17:12:25.201Z,3.60
2018-08-03T17:14:54.816Z,4.37
2018-08-03T17:17:25.010Z,3.87
2018-08-03T17:19:54.373Z,4.20
2018-08-03T17:22:23.550Z,3.90
2018-08-03T17:24:53.017Z,4.00
2018-08-03T17:27:21.865Z,3.87
2018-08-03T17:29:50.434Z,4.20
2018-08-03T17:32:20.505Z,4.17
2018-08-03T17:34:50.097Z,4.17
2018-08-03T17:37:20.282Z,3.70
2018-08-03T17:39:48.981Z,4.40
2018-08-03T17:42:18.228Z,4.30
2018-08-03T17:44:46.781Z,4.10
2018-08-03T17:47:15.611Z,4.47
2018-08-03T17:49:44.375Z,4.00
2018-08-03T17:52:13.847Z,3.65
2018-08-03T17:54:42.849Z,4.33
2018-08-03T17:57:12.115Z,4.67
2018-08-03T17:59:40.799Z,4.45
2018-08-03T18:02:09.271Z,4.20
2018-08-03T18:04:38.575Z,4.53
2018-08-03T18:07:07.264Z,4.33
2018-08-03T18:09:35.784Z,4.40
2018-08-03T18:12:04.428Z,4.67
2018-08-03T18:14:33.615Z,4.58
2018-08-03T18:17:02.741Z,4.50
2018-08-03T18:19:31.451Z,4.70
2018-08-03T18:22:00.478Z,4.37
2018-08-03T18:24:30.777Z,4.25
2018-08-03T18:27:01.675Z,4.40
2018-08-03T18:29:31.281Z,4.55
2018-08-03T18:31:59.826Z,4.17
2018-08-03T18:34:29.287Z,4.00
2018-08-03T18:36:58.158Z,3.90
2018-08-03T18:39:26.736Z,3.85
2018-08-03T18:41:56.175Z,4.10
2018-08-03T18:44:26.388Z,4.30
2018-08-03T18:46:56.108Z,4.58
2018-08-03T18:49:24.785Z,4.62
2018-08-03T18:51:54.039Z,4.30
2018-08-03T18:54:22.564Z,4.50
2018-08-03T18:56:52.712Z,4.70
2018-08-03T18:59:21.485Z,4.67
2018-08-03T19:01:50.205Z,4.70
2018-08-03T19:04:18.753Z,4.50
2018-08-03T19:06:47.924Z,5.10
2018-08-03T19:09:16.584Z,4.70
2018-08-03T19:11:47.029Z,5.10
2018-08-03T19:14:16.493Z,4.78
2018-08-03T19:16:47.607Z,4.83
2018-08-03T19:19:17.997Z,4.90
2018-08-03T19:21:48.418Z,5.23
2018-08-03T19:24:17.823Z,5.15
2018-08-03T19:26:47.081Z,5.08
2018-08-03T19:29:16.227Z,5.47
2018-08-03T19:31:44.709Z,5.17
2018-08-03T19:34:13.573Z,5.15
2018-08-03T19:36:42.134Z,5.40
2018-08-03T19:39:11.942Z,5.15
2018-08-03T19:41:41.860Z,4.75
2018-08-03T19:44:11.796Z,6.10
2018-08-03T19:46:40.842Z,5.30
2018-08-03T19:49:10.379Z,4.90
2018-08-03T19:51:39.211Z,5.44
2018-08-03T19:54:08.043Z,5.00
2018-08-03T19:56:36.999Z,4.90
2018-08-03T19:59:06.606Z,4.72
2018-08-03T20:01:36.457Z,4.90
2018-08-03T20:04:05.042Z,5.05
2018-08-03T20:06:34.684Z,4.78
2018-08-03T20:09:07.258Z,5.17
2018-08-03T20:11:35.850Z,4.75
2018-08-03T20:14:04.830Z,5.28
2018-08-03T20:16:34.368Z,5.33
2018-08-03T20:19:03.343Z,4.70
2018-08-03T20:21:32.060Z,5.08
2018-08-03T20:24:00.792Z,4.97
2018-08-03T20:26:29.451Z,5.10
2018-08-03T20:28:59.503Z,4.65
2018-08-03T20:31:28.169Z,4.70
2018-08-03T20:33:59.642Z,4.83
2018-08-03T20:36:29.864Z,4.97
2018-08-03T20:38:58.407Z,4.67
2018-08-03T20:41:27.291Z,4.75
2018-08-03T20:43:57.497Z,4.80
2018-08-03T20:46:26.968Z,4.95
2018-08-03T20:48:56.951Z,4.43
2018-08-03T20:51:26.442Z,5.08
2018-08-03T20:53:56.449Z,4.72
2018-08-03T20:56:26.751Z,4.65
2018-08-03T20:58:55.936Z,4.45
2018-08-03T21:01:27.748Z,4.87
2018-08-03T21:03:57.248Z,4.78
2018-08-03T21:06:27.903Z,4.53
2018-08-03T21:08:56.668Z,4.72
2018-08-03T21:11:32.040Z,4.62
2018-08-03T21:14:01.746Z,5.10
2018-08-03T21:16:31.341Z,4.12
2018-08-03T21:18:59.875Z,4.42
2018-08-03T21:21:33.332Z,4.30
2018-08-03T21:24:03.218Z,4.37
2018-08-03T21:26:31.731Z,4.53
2018-08-03T21:29:00.295Z,4.22
2018-08-03T21:31:29.635Z,4.30
2018-08-03T21:33:59.888Z,4.10
2018-08-03T21:36:28.566Z,4.12
2018-08-03T21:38:57.319Z,4.47
2018-08-03T21:41:25.840Z,4.20
2018-08-03T21:43:54.474Z,3.98
2018-08-03T21:46:23.499Z,4.12
2018-08-03T21:48:53.039Z,4.03
2018-08-03T21:51:22.373Z,4.10
2018-08-03T21:53:50.825Z,4.10
2018-08-03T21:56:19.456Z,4.12
2018-08-03T21:58:48.557Z,4.25
2018-08-03T22:01:18.350Z,3.60
2018-08-03T22:03:47.655Z,3.63
2018-08-03T22:06:16.840Z,3.98
2018-08-03T22:08:45.520Z,4.03
2018-08-03T22:11:15.018Z,3.50
2018-08-03T22:13:43.777Z,3.60
2018-08-03T22:16:12.335Z,3.70
2018-08-03T22:18:42.722Z,3.77
2018-08-03T22:21:12.369Z,3.65
2018-08-03T22:23:42.305Z,3.90
2018-08-03T22:26:11.627Z,3.60
2018-08-03T22:28:41.452Z,3.62
2018-08-03T22:31:10.496Z,3.80
2018-08-03T22:33:41.771Z,3.70
2018-08-03T22:36:11.196Z,3.58
2018-08-03T22:38:40.381Z,3.80
2018-08-03T22:41:10.378Z,3.55
2018-08-03T22:43:39.746Z,3.58
2018-08-03T22:46:09.398Z,3.60
2018-08-03T22:48:40.837Z,3.52
2018-08-03T22:51:12.527Z,3.83
2018-08-03T22:53:41.326Z,3.50
2018-08-03T22:56:12.116Z,3.60
2018-08-03T22:58:41.598Z,3.22
2018-08-03T23:01:12.485Z,3.58
2018-08-03T23:03:42.030Z,3.22
2018-08-03T23:06:10.527Z,3.45
2018-08-03T23:08:38.988Z,3.70
2018-08-03T23:11:09.974Z,3.62
2018-08-03T23:13:38.515Z,3.27
2018-08-03T23:16:08.192Z,3.60
2018-08-03T23:18:38.590Z,3.50
2018-08-03T23:21:07.745Z,3.35
2018-08-03T23:23:36.513Z,3.12
2018-08-03T23:26:06.144Z,3.17
2018-08-03T23:28:35.221Z,3.95
2018-08-03T23:31:08.102Z,4.60
2018-08-03T23:33:37.869Z,4.80
2018-08-03T23:36:07.826Z,4.97
2018-08-03T23:38:37.394Z,4.95
2018-08-03T23:41:06.249Z,4.40
2018-08-03T23:43:35.655Z,4.13
2018-08-03T23:46:04.915Z,3.62
2018-08-03T23:48:34.491Z,4.05
2018-08-03T23:51:04.817Z,3.52
2018-08-03T23:53:35.409Z,3.67
2018-08-03T23:56:05.056Z,3.62
2018-08-03T23:58:34.127Z,3.60
